createdAt,value
2024-05-09T00:02:08.241Z,100011.19
2024-05-09T00:04:35.004Z,99987.72
2024-05-09T00:07:02.017Z,99986.16
2024-05-09T00:09:28.607Z,100002.88
2024-05-09T00:11:55.487Z,99997.44
2024-05-09T00:14:22.223Z,100000.28
2024-05-09T00:16:49.764Z,99996.03
2024-05-09T00:19:16.651Z,99982.00
2024-05-09T00:21:43.762Z,100001.25
2024-05-09T00:24:10.411Z,99980.34
2024-05-09T00:26:37.011Z,99997.22
2024-05-09T00:29:03.818Z,99998.84
2024-05-09T00:31:30.417Z,99983.69
2024-05-09T00:33:57.361Z,99992.59
2024-05-09T00:36:24.181Z,99981.53
2024-05-09T00:38:50.828Z,99983.69
2024-05-09T00:41:19.660Z,99975.00
2024-05-09T00:43:46.595Z,99985.31
2024-05-09T00:46:13.781Z,99977.88
2024-05-09T00:48:41.180Z,99972.84
2024-05-09T00:51:08.027Z,99978.91
2024-05-09T00:53:34.943Z,99978.66
2024-05-09T00:56:01.934Z,99981.16
2024-05-09T00:58:29.426Z,99993.41
2024-05-09T01:00:59.312Z,99990.81
2024-05-09T01:03:26.999Z,99985.44
2024-05-09T01:05:54.555Z,99976.69
2024-05-09T01:08:21.711Z,99984.59
2024-05-09T01:10:48.882Z,99968.72
2024-05-09T01:13:15.792Z,99980.34
2024-05-09T01:15:43.326Z,99994.59
2024-05-09T01:18:12.547Z,99993.66
2024-05-09T01:20:43.285Z,99974.41
2024-05-09T01:23:14.173Z,99995.31
2024-05-09T01:25:42.531Z,99982.47
2024-05-09T01:28:09.232Z,99969.78
2024-05-09T01:30:37.739Z,99984.88
2024-05-09T01:33:07.242Z,99963.97
2024-05-09T01:35:35.895Z,99979.88
2024-05-09T01:38:02.782Z,99963.13
2024-05-09T01:40:37.074Z,99978.19
2024-05-09T01:43:06.825Z,99978.09
2024-05-09T01:45:33.646Z,99970.34
2024-05-09T01:48:00.668Z,99977.25
2024-05-09T01:52:57.153Z,99984.41
2024-05-09T01:55:23.830Z,99984.59
2024-05-09T01:57:50.445Z,99971.31
2024-05-09T02:00:22.443Z,99974.88
2024-05-09T02:02:57.890Z,99973.44
2024-05-09T02:05:24.801Z,99990.91
2024-05-09T02:07:51.477Z,99981.53
2024-05-09T02:10:23.520Z,99988.41
2024-05-09T02:12:56.838Z,99985.94
2024-05-09T02:15:23.456Z,99956.84
2024-05-09T02:17:50.691Z,99985.31
2024-05-09T02:20:26.757Z,99993.03
2024-05-09T02:22:57.624Z,99973.69
2024-05-09T02:25:24.963Z,99987.22
2024-05-09T02:27:51.515Z,99973.94
2024-05-09T02:30:26.325Z,99973.69
2024-05-09T02:33:03.971Z,99968.72
2024-05-09T02:35:30.801Z,99973.69
2024-05-09T02:37:57.723Z,99969.56
2024-05-09T02:40:33.221Z,99978.91
2024-05-09T02:43:03.823Z,99992.22
2024-05-09T02:45:30.441Z,99973.69
2024-05-09T02:47:57.405Z,99974.53
2024-05-09T02:50:33.076Z,99968.47
2024-05-09T02:53:04.458Z,99989.97
2024-05-09T02:55:31.218Z,99965.41
2024-05-09T02:57:57.901Z,99985.69
2024-05-09T03:00:34.174Z,99968.22
2024-05-09T03:03:06.383Z,99990.06
2024-05-09T03:05:33.522Z,99986.63
2024-05-09T03:08:00.317Z,99974.53
2024-05-09T03:10:29.158Z,99966.59
2024-05-09T03:13:06.067Z,99990.19
2024-05-09T03:15:33.181Z,99974.53
2024-05-09T03:18:00.890Z,99980.81
2024-05-09T03:20:33.491Z,99990.53
2024-05-09T03:23:02.297Z,99956.38
2024-05-09T03:25:29.087Z,99971.56
2024-05-09T03:27:55.761Z,99981.53
2024-05-09T03:30:31.254Z,99957.31
2024-05-09T03:33:10.405Z,99975.97
2024-05-09T03:35:37.354Z,99957.53
2024-05-09T03:38:04.309Z,99994.34
2024-05-09T03:40:31.438Z,99997.91
2024-05-09T03:42:58.880Z,99988.53
2024-05-09T03:45:25.675Z,99992.91
2024-05-09T03:47:52.876Z,99995.50
2024-05-09T03:50:29.533Z,99990.28
2024-05-09T03:53:00.531Z,99991.28
2024-05-09T03:55:27.357Z,99972.38
2024-05-09T03:57:54.011Z,99991.28
2024-05-09T04:00:30.451Z,99983.06
2024-05-09T04:03:02.885Z,99963.00
2024-05-09T04:05:31.134Z,99992.69
2024-05-09T04:07:58.254Z,99997.19
2024-05-09T04:10:32.394Z,99988.53
2024-05-09T04:13:00.814Z,100012.97
2024-05-09T04:15:27.521Z,99995.03
2024-05-09T04:17:54.456Z,100016.41
2024-05-09T04:20:32.546Z,100000.28
2024-05-09T04:23:05.581Z,100018.06
2024-05-09T04:25:32.450Z,100006.66
2024-05-09T04:27:59.109Z,99999.31
2024-05-09T04:30:34.764Z,100021.41
2024-05-09T04:33:06.917Z,100023.78
2024-05-09T04:35:34.786Z,100013.19
2024-05-09T04:38:01.611Z,100036.84
2024-05-09T04:40:33.863Z,100025.91
2024-05-09T04:43:04.073Z,100037.78
2024-05-09T04:45:30.791Z,100039.44
2024-05-09T04:47:57.916Z,100036.84
2024-05-09T04:50:32.755Z,100028.16
2024-05-09T04:53:03.543Z,100041.22
2024-05-09T04:55:30.436Z,100025.22
2024-05-09T04:57:57.081Z,100039.09
2024-05-09T05:00:32.428Z,100019.63
2024-05-09T05:03:10.586Z,100043.03
2024-05-09T05:05:42.712Z,100048.94
2024-05-09T05:08:13.774Z,100020.69
2024-05-09T05:10:41.314Z,100042.53
2024-05-09T05:13:18.422Z,100035.66
2024-05-09T05:16:04.877Z,100051.69
2024-05-09T05:18:31.629Z,100052.28
2024-05-09T05:20:58.824Z,100055.59
2024-05-09T05:23:25.776Z,100045.66
2024-05-09T05:25:53.369Z,100044.22
2024-05-09T05:28:21.577Z,100047.06
2024-05-09T05:30:48.193Z,100072.00
2024-05-09T05:33:18.773Z,100059.19
2024-05-09T05:35:45.986Z,100064.66
2024-05-09T05:38:12.590Z,100061.09
2024-05-09T05:40:40.429Z,100070.81
2024-05-09T05:43:09.324Z,100071.09
2024-05-09T05:45:36.438Z,100042.13
2024-05-09T05:48:04.637Z,100080.09
2024-05-09T05:50:36.034Z,100066.72
2024-05-09T05:53:06.470Z,100074.72
2024-05-09T05:55:33.407Z,100062.44
2024-05-09T05:58:01.599Z,100043.91
2024-05-09T06:00:34.827Z,100026.19
2024-05-09T06:03:05.602Z,100071.50
2024-05-09T06:05:32.950Z,100079.50
2024-05-09T06:07:59.771Z,100068.00
2024-05-09T06:10:36.717Z,100079.56
2024-05-09T06:13:05.978Z,100085.47
2024-05-09T06:15:32.574Z,100087.41
2024-05-09T06:17:59.581Z,100080.19
2024-05-09T06:20:34.903Z,100065.13
2024-05-09T06:23:04.233Z,100079.97
2024-05-09T06:25:31.037Z,100087.81
2024-05-09T06:27:57.694Z,100090.50
2024-05-09T06:30:30.853Z,100089.75
2024-05-09T06:33:05.941Z,100059.59
2024-05-09T06:35:33.659Z,100089.94
2024-05-09T06:38:00.653Z,100090.00
2024-05-09T06:40:36.168Z,100080.16
2024-05-09T06:43:10.183Z,100083.03
2024-05-09T06:45:37.112Z,100103.41
2024-05-09T06:48:04.215Z,100075.66
2024-05-09T06:50:37.000Z,100097.47
2024-05-09T06:53:05.340Z,100089.28
2024-05-09T06:55:32.107Z,100086.63
2024-05-09T06:57:58.706Z,100085.22
2024-05-09T07:00:34.368Z,100097.66
2024-05-09T07:03:13.864Z,100080.63
2024-05-09T07:05:42.964Z,100089.47
2024-05-09T07:08:10.364Z,100085.50
2024-05-09T07:10:37.525Z,100090.31
2024-05-09T07:13:11.422Z,100099.75
2024-05-09T07:15:38.482Z,100112.03
2024-05-09T07:18:17.137Z,100085.50
2024-05-09T07:20:45.538Z,100101.66
2024-05-09T07:23:12.563Z,100111.22
2024-05-09T07:25:40.606Z,100111.78
2024-05-09T07:28:13.253Z,100119.78
2024-05-09T07:30:39.911Z,100114.38
2024-05-09T07:33:06.747Z,100113.84
2024-05-09T07:35:33.725Z,100111.03
2024-05-09T07:38:00.717Z,100115.19
2024-05-09T07:40:35.008Z,100110.91
2024-05-09T07:43:13.088Z,100108.63
2024-05-09T07:45:49.873Z,100097.94
2024-05-09T07:52:37.602Z,100117.97
2024-05-09T07:53:47.898Z,100118.38
2024-05-09T07:56:19.115Z,100129.78
2024-05-09T07:58:49.969Z,100125.88
2024-05-09T08:01:16.621Z,100119.19
2024-05-09T08:03:43.561Z,100117.47
2024-05-09T08:06:10.295Z,100119.22
2024-05-09T08:08:36.895Z,100108.53
2024-05-09T08:11:03.648Z,100111.19
2024-05-09T08:13:30.293Z,100121.66
2024-05-09T08:15:56.926Z,100123.28
2024-05-09T08:18:23.898Z,100126.84
2024-05-09T08:20:50.996Z,100114.00
2024-05-09T08:23:17.997Z,100109.25
2024-05-09T08:25:44.721Z,100123.63
2024-05-09T08:28:11.717Z,100127.75
2024-05-09T08:30:38.853Z,100127.31
2024-05-09T08:33:06.954Z,100108.34
2024-05-09T08:35:34.768Z,100122.47
2024-05-09T08:38:03.424Z,100119.19
2024-05-09T08:40:35.655Z,100123.69
2024-05-09T08:43:08.257Z,100115.94
2024-05-09T08:45:36.855Z,100130.09
2024-05-09T08:48:07.788Z,100127.03
2024-05-09T08:50:39.203Z,100126.19
2024-05-09T09:02:45.157Z,100117.91
2024-05-09T09:05:17.051Z,100122.19
2024-05-09T09:07:48.417Z,100127.75
2024-05-09T09:10:28.909Z,100122.44
2024-05-09T09:13:03.450Z,100098.16
2024-05-09T09:15:30.429Z,100110.03
2024-05-09T09:18:00.946Z,100104.50
2024-05-09T09:20:34.061Z,100092.69
2024-05-09T09:23:03.683Z,100098.38
2024-05-09T09:25:30.533Z,100106.66
2024-05-09T09:27:58.309Z,100094.59
2024-05-09T09:30:35.284Z,100078.81
2024-05-09T09:33:13.968Z,100103.75
2024-05-09T09:35:41.068Z,100079.81
2024-05-09T09:38:10.083Z,100077.00
2024-05-09T09:40:42.995Z,100108.22
2024-05-09T09:43:21.579Z,100090.19
2024-05-09T09:45:53.410Z,100090.50
2024-05-09T09:48:21.641Z,100104.19
2024-05-09T09:50:51.197Z,100100.16
2024-05-09T09:53:19.454Z,100101.69
2024-05-09T09:55:47.033Z,100096.81
2024-05-09T09:58:16.403Z,100105.63
2024-05-09T10:01:27.035Z,100107.81
2024-05-09T10:03:53.912Z,100102.56
2024-05-09T10:06:21.790Z,100086.09
2024-05-09T10:08:49.585Z,100092.22
2024-05-09T10:11:21.211Z,100091.84
2024-05-09T10:13:48.212Z,100085.97
2024-05-09T10:16:21.075Z,100084.69
2024-05-09T10:18:47.950Z,100071.84
2024-05-09T10:21:17.585Z,100089.22
2024-05-09T10:23:56.089Z,100087.41
2024-05-09T10:26:32.086Z,100080.63
2024-05-09T10:28:59.187Z,100059.88
2024-05-09T10:31:29.804Z,100074.78
2024-05-09T10:33:56.846Z,100073.09
2024-05-09T10:36:25.826Z,100069.50
2024-05-09T10:38:53.915Z,100071.38
2024-05-09T10:41:22.192Z,100069.84
2024-05-09T10:43:50.393Z,100061.44
2024-05-09T10:46:19.130Z,100055.31
2024-05-09T10:48:47.621Z,100065.50
2024-05-09T10:51:14.678Z,100067.63
2024-05-09T10:53:45.308Z,100065.84
2024-05-09T10:56:13.917Z,100070.91
2024-05-09T10:58:40.824Z,100036.69
2024-05-09T11:01:09.211Z,100060.72
2024-05-09T11:03:36.997Z,100063.25
2024-05-09T11:06:04.407Z,100064.44
2024-05-09T11:08:32.459Z,100063.16
2024-05-09T11:10:59.935Z,100056.25
2024-05-09T11:13:31.654Z,100057.59
2024-05-09T11:15:59.344Z,100053.69
2024-05-09T11:18:29.781Z,100057.38
2024-05-09T11:20:58.999Z,100036.22
2024-05-09T11:23:27.502Z,100039.53
2024-05-09T11:25:55.609Z,100048.38
2024-05-09T11:28:22.897Z,100034.38
2024-05-09T11:30:50.761Z,100036.34
2024-05-09T11:33:19.314Z,100037.03
2024-05-09T11:35:47.120Z,100040.00
2024-05-09T11:38:14.349Z,100025.97
2024-05-09T11:40:41.100Z,100034.28
2024-05-09T11:43:07.880Z,100006.38
2024-05-09T11:45:34.682Z,100034.63
2024-05-09T11:48:01.643Z,100032.47
2024-05-09T11:50:33.109Z,100031.13
2024-05-09T11:53:02.338Z,100025.53
2024-05-09T11:55:29.266Z,100019.78
2024-05-09T11:57:56.660Z,100005.75
2024-05-09T12:00:33.791Z,99995.53
2024-05-09T12:03:05.391Z,100006.75
2024-05-09T12:05:33.147Z,99999.84
2024-05-09T12:08:00.821Z,100019.97
2024-05-09T12:10:33.168Z,99998.34
2024-05-09T12:13:03.158Z,100000.84
2024-05-09T12:15:30.964Z,99978.53
2024-05-09T12:18:00.052Z,99985.28
2024-05-09T12:20:35.640Z,100004.47
2024-05-09T12:23:05.503Z,99985.97
2024-05-09T12:25:32.275Z,99982.34
2024-05-09T12:27:59.092Z,99989.31
2024-05-09T12:30:35.213Z,99999.19
2024-05-09T12:33:05.980Z,99979.72
2024-05-09T12:35:33.042Z,99986.00
2024-05-09T12:38:00.122Z,99989.69
2024-05-09T12:40:34.814Z,99979.09
2024-05-09T12:43:05.094Z,99983.38
2024-05-09T12:45:31.932Z,99970.34
2024-05-09T12:47:58.924Z,99984.59
2024-05-09T12:50:32.262Z,99980.47
2024-05-09T12:53:01.459Z,99976.50
2024-05-09T12:55:30.170Z,99986.75
2024-05-09T12:58:00.883Z,99952.88
2024-05-09T13:00:31.788Z,99980.97
2024-05-09T13:03:01.214Z,99968.88
2024-05-09T13:05:28.424Z,99980.97
2024-05-09T13:07:56.928Z,99974.81
2024-05-09T13:10:31.198Z,99975.16
2024-05-09T13:13:00.557Z,99977.78
2024-05-09T13:15:27.727Z,99979.41
2024-05-09T13:17:57.008Z,99962.09
2024-05-09T13:20:31.782Z,99973.84
2024-05-09T13:23:05.559Z,99969.91
2024-05-09T13:25:34.932Z,99956.03
2024-05-09T13:28:02.443Z,99964.13
2024-05-09T13:30:38.262Z,99968.59
2024-05-09T13:33:09.636Z,99962.66
2024-05-09T13:35:36.767Z,99947.13
2024-05-09T13:38:04.846Z,99953.09
2024-05-09T13:40:34.758Z,99946.81
2024-05-09T13:43:06.220Z,99938.91
2024-05-09T13:45:33.721Z,99938.56
2024-05-09T13:48:02.350Z,99951.59
2024-05-09T13:50:35.892Z,99930.81
2024-05-09T13:53:06.214Z,99934.44
2024-05-09T13:55:34.137Z,99942.34
2024-05-09T13:58:01.355Z,99942.84
2024-05-09T14:00:41.680Z,99943.81
2024-05-09T14:03:13.963Z,99946.78
2024-05-09T14:05:41.143Z,99938.53
2024-05-09T14:08:08.690Z,99926.97
2024-05-09T14:10:35.672Z,99930.41
2024-05-09T14:13:02.466Z,99921.38
2024-05-09T14:15:29.668Z,99940.03
2024-05-09T14:17:56.515Z,99938.69
2024-05-09T14:20:30.394Z,99932.22
2024-05-09T14:22:59.804Z,99933.56
2024-05-09T14:25:31.993Z,99921.34
2024-05-09T14:27:59.144Z,99929.59
2024-05-09T14:30:35.891Z,99929.59
2024-05-09T14:33:05.710Z,99927.31
2024-05-09T14:35:33.063Z,99915.59
2024-05-09T14:37:59.857Z,99919.88
2024-05-09T14:40:36.939Z,99932.59
2024-05-09T14:43:08.745Z,99909.16
2024-05-09T14:45:35.743Z,99919.03
2024-05-09T14:48:03.363Z,99918.06
2024-05-09T14:50:36.066Z,99902.06
2024-05-09T14:53:08.986Z,99913.94
2024-05-09T14:55:37.723Z,99908.50
2024-05-09T14:58:09.336Z,99909.81
2024-05-09T15:00:49.920Z,99907.66
2024-05-09T15:03:19.545Z,99902.38
2024-05-09T15:05:47.492Z,99900.91
2024-05-09T15:08:14.271Z,99912.13
2024-05-09T15:10:41.081Z,99889.34
2024-05-09T15:13:09.784Z,99893.13
2024-05-09T15:15:38.128Z,99891.31
2024-05-09T15:18:06.305Z,99902.03
2024-05-09T15:20:36.275Z,99884.69
2024-05-09T15:23:05.344Z,99878.75
2024-05-09T15:25:36.669Z,99893.41
2024-05-09T15:28:04.517Z,99868.69
2024-05-09T15:30:33.500Z,99880.38
2024-05-09T15:33:04.050Z,99880.75
2024-05-09T15:35:31.155Z,99885.53
2024-05-09T15:37:57.798Z,99874.00
2024-05-09T15:40:34.845Z,99860.00
2024-05-09T15:43:06.672Z,99890.00
2024-05-09T15:45:34.463Z,99885.38
2024-05-09T15:48:02.586Z,99875.50
2024-05-09T15:50:36.950Z,99888.03
2024-05-09T15:53:07.881Z,99866.59
2024-05-09T15:55:35.544Z,99873.34
2024-05-09T15:58:04.175Z,99889.34
2024-05-09T16:03:01.249Z,99884.56
2024-05-09T16:05:28.259Z,99888.69
2024-05-09T16:07:55.159Z,99873.19
2024-05-09T16:10:25.982Z,99865.28
2024-05-09T16:12:59.078Z,99888.38
2024-05-09T16:15:26.064Z,99853.38
2024-05-09T16:17:52.817Z,99885.41
2024-05-09T16:20:29.928Z,99869.91
2024-05-09T16:23:05.299Z,99882.44
2024-05-09T16:25:31.919Z,99878.13
2024-05-09T16:27:58.779Z,99866.56
2024-05-09T16:30:32.010Z,99883.88
2024-05-09T16:33:02.429Z,99885.19
2024-05-09T16:35:29.431Z,99866.59
2024-05-09T16:37:56.161Z,99884.88
2024-05-09T16:40:30.276Z,99870.69
2024-05-09T16:43:04.717Z,99882.72
2024-05-09T16:45:32.016Z,99883.41
2024-05-09T16:48:00.070Z,99880.25
2024-05-09T16:50:32.514Z,99871.34
2024-05-09T16:53:02.069Z,99886.19
2024-05-09T16:55:29.042Z,99889.81
2024-05-09T16:57:57.269Z,99886.69
2024-05-09T17:00:35.214Z,99873.81
2024-05-09T17:03:07.962Z,99885.00
2024-05-09T17:05:35.548Z,99882.56
2024-05-09T17:08:03.059Z,99888.97
2024-05-09T17:10:33.557Z,99875.25
2024-05-09T17:13:03.216Z,99862.56
2024-05-09T17:15:31.074Z,99888.31
2024-05-09T17:17:58.153Z,99880.34
2024-05-09T17:20:31.883Z,99895.69
2024-05-09T17:23:02.923Z,99870.72
2024-05-09T17:25:29.832Z,99895.84
2024-05-09T17:27:57.086Z,99894.78
2024-05-09T17:30:32.183Z,99890.31
2024-05-09T17:33:04.239Z,99910.25
2024-05-09T17:35:31.850Z,99888.94
2024-05-09T17:37:59.711Z,99887.06
2024-05-09T17:40:33.227Z,99908.69
2024-05-09T17:43:03.343Z,99910.47
2024-05-09T17:45:30.618Z,99912.38
2024-05-09T17:47:58.063Z,99905.09
2024-05-09T17:50:31.383Z,99909.34
2024-05-09T17:53:02.388Z,99899.50
2024-05-09T17:55:29.322Z,99901.88
2024-05-09T17:57:56.237Z,99915.16
2024-05-09T18:00:33.163Z,99908.13
2024-05-09T18:03:06.342Z,99924.38
2024-05-09T18:05:34.048Z,99918.00
2024-05-09T18:08:00.803Z,99918.38
2024-05-09T18:10:35.154Z,99915.72
2024-05-09T18:13:06.169Z,99912.44
2024-05-09T18:15:33.599Z,99931.03
2024-05-09T18:18:01.713Z,99919.09
2024-05-09T18:20:37.732Z,99941.09
2024-05-09T18:23:10.262Z,99945.88
2024-05-09T18:25:37.315Z,99953.13
2024-05-09T18:28:04.478Z,99948.97
2024-05-09T18:30:34.593Z,99958.41
2024-05-09T18:33:04.477Z,99963.53
2024-05-09T18:35:31.806Z,99954.84
2024-05-09T18:37:58.525Z,99952.94
2024-05-09T18:40:32.412Z,99956.00
2024-05-09T18:43:02.778Z,99957.13
2024-05-09T18:45:29.769Z,99950.72
2024-05-09T18:47:56.834Z,99966.34
2024-05-09T18:50:32.360Z,99980.81
2024-05-09T18:53:05.878Z,99987.88
2024-05-09T18:55:32.952Z,99980.94
2024-05-09T18:57:59.886Z,99989.59
2024-05-09T19:00:33.975Z,99998.81
2024-05-09T19:03:06.179Z,99949.97
2024-05-09T19:05:35.316Z,99997.00
2024-05-09T19:08:03.118Z,99991.50
2024-05-09T19:10:34.277Z,100008.19
2024-05-09T19:13:06.496Z,100014.06
2024-05-09T19:15:37.202Z,100009.16
2024-05-09T19:18:04.334Z,100012.69
2024-05-09T19:20:35.598Z,100009.31
2024-05-09T19:23:03.782Z,100021.25
2024-05-09T19:25:30.522Z,100007.44
2024-05-09T19:27:57.376Z,100018.75
2024-05-09T19:30:32.914Z,100002.75
2024-05-09T19:33:05.813Z,100009.88
2024-05-09T19:35:32.929Z,100030.09
2024-05-09T19:37:59.742Z,100013.28
2024-05-09T19:40:31.881Z,100014.97
2024-05-09T19:43:02.012Z,100035.75
2024-05-09T19:45:29.405Z,100044.69
2024-05-09T19:47:56.708Z,100037.00
2024-05-09T19:50:32.151Z,100027.72
2024-05-09T19:53:06.717Z,100027.59
2024-05-09T19:55:33.892Z,100043.91
2024-05-09T19:58:04.852Z,100045.66
2024-05-09T20:00:39.060Z,100050.16
2024-05-09T20:03:08.508Z,100041.34
2024-05-09T20:05:36.292Z,100032.22
2024-05-09T20:08:03.736Z,100017.84
2024-05-09T20:10:33.098Z,100054.56
2024-05-09T20:13:02.465Z,100056.94
2024-05-09T20:15:29.400Z,100043.94
2024-05-09T20:17:56.383Z,100066.25
2024-05-09T20:20:33.094Z,100059.16
2024-05-09T20:23:06.211Z,100068.16
2024-05-09T20:25:32.929Z,100070.13
2024-05-09T20:27:59.646Z,100061.94
2024-05-09T20:30:31.953Z,100068.34
2024-05-09T20:33:02.888Z,100068.22
2024-05-09T20:35:32.416Z,100067.63
2024-05-09T20:37:59.643Z,100054.75
2024-05-09T20:40:32.531Z,100056.91
2024-05-09T20:43:02.980Z,100082.50
2024-05-09T20:45:29.637Z,100083.94
2024-05-09T20:47:57.329Z,100055.84
2024-05-09T20:50:34.829Z,100077.41
2024-05-09T20:53:05.608Z,100062.88
2024-05-09T20:55:32.323Z,100059.75
2024-05-09T20:57:59.067Z,100071.56
2024-05-09T21:00:34.576Z,100066.56
2024-05-09T21:03:06.922Z,100040.38
2024-05-09T21:05:34.646Z,100086.50
2024-05-09T21:08:01.784Z,100088.81
2024-05-09T21:10:32.710Z,100090.69
2024-05-09T21:13:01.388Z,100075.41
2024-05-09T21:15:28.346Z,100076.56
2024-05-09T21:17:55.227Z,100101.16
2024-05-09T21:20:28.723Z,100076.03
2024-05-09T21:22:58.494Z,100068.69
2024-05-09T21:25:25.287Z,100073.06
2024-05-09T21:27:52.339Z,100065.88
2024-05-09T21:30:31.187Z,100089.53
2024-05-09T21:33:05.857Z,100078.56
2024-05-09T21:35:32.817Z,100089.94
2024-05-09T21:37:59.423Z,100080.88
2024-05-09T21:40:33.396Z,100108.78
2024-05-09T21:43:02.212Z,100089.63
2024-05-09T21:45:28.870Z,100085.75
2024-05-09T21:47:55.658Z,100068.66
2024-05-09T21:50:28.397Z,100099.75
2024-05-09T21:53:02.705Z,100090.09
2024-05-09T21:55:30.019Z,100112.66
2024-05-09T21:57:56.927Z,100090.94
2024-05-09T22:00:32.024Z,100109.31
2024-05-09T22:03:03.132Z,100090.00
2024-05-09T22:05:30.111Z,100110.34
2024-05-09T22:07:57.124Z,100057.84
2024-05-09T22:10:30.512Z,100074.72
2024-05-09T22:13:01.013Z,100117.44
2024-05-09T22:15:27.735Z,100110.94
2024-05-09T22:17:56.351Z,100100.44
2024-05-09T22:20:32.831Z,100111.47
2024-05-09T22:23:04.290Z,100118.66
2024-05-09T22:25:32.098Z,100098.22
2024-05-09T22:27:59.491Z,100088.72
2024-05-09T22:30:33.728Z,100108.84
2024-05-09T22:33:05.220Z,100094.88
2024-05-09T22:35:32.078Z,100115.09
2024-05-09T22:37:58.827Z,100095.72
2024-05-09T22:40:37.862Z,100092.28
2024-05-09T22:43:12.456Z,100109.75
2024-05-09T22:45:39.280Z,100104.25
2024-05-09T22:48:06.825Z,100109.88
2024-05-09T22:50:33.946Z,100108.22
2024-05-09T22:53:00.979Z,100106.53
2024-05-09T22:55:27.750Z,100111.13
2024-05-09T22:57:54.461Z,100111.13
2024-05-09T23:00:29.298Z,100091.97
2024-05-09T23:03:02.299Z,100079.63
2024-05-09T23:05:29.588Z,100102.25
2024-05-09T23:07:56.513Z,100083.16
2024-05-09T23:10:31.057Z,100119.00
2024-05-09T23:13:02.525Z,100123.19
2024-05-09T23:15:29.479Z,100085.69
2024-05-09T23:17:57.348Z,100101.22
2024-05-09T23:20:33.897Z,100101.41
2024-05-09T23:23:05.783Z,100115.06
2024-05-09T23:25:32.616Z,100123.59
2024-05-09T23:27:59.403Z,100126.28
2024-05-09T23:30:34.225Z,100107.50
2024-05-09T23:33:06.172Z,100112.53
2024-05-09T23:35:33.072Z,100126.47
2024-05-09T23:37:59.724Z,100114.03
2024-05-09T23:40:37.056Z,100116.03
2024-05-09T23:43:07.207Z,100128.09
2024-05-09T23:45:34.231Z,100121.22
2024-05-09T23:48:01.413Z,100103.91
2024-05-09T23:50:34.539Z,100124.19
2024-05-09T23:53:05.006Z,100117.75
2024-05-09T23:55:32.609Z,100129.59
2024-05-09T23:57:59.738Z,100121.81
